Hovedside
METAR-TAF:

METAR-TAF

Lufthavner :

Vasa, Finland

Vasa lufthavn

breddegrad: 63-03N, lengdegrad: 021-46E, høyde over havet: 4 m

Gjeldene værobservasjon

Denne rapporten ble laget for 21 minutter siden, klokken 18:20 UTC
Vind 4 kt fra Øst, skiftende mellom Øst-nordøst og Øst-sørøst
Temperatur 11°C
Luftfuktighet 82%
Trykk 1029 hPa
Sikt 10 km eller mer

METAR: EFVA 221820Z AUTO 09004KT 060V120 9999 OVC021/// 11/08 Q1029

Tid: 21:41 (18:41 UTC)

Varsel

Denne rapporten ble laget for 1 time og 9 minutter siden, klokken 17:32 UTC
Varsel gyldig fra 22. klokken 18 UTC til 23. klokken 18 UTC
Vind 8 kt fra Øst-sørøst
Sikt 10 km eller mer
Brutte skyer i en høyde av 1600 ft
Midlertidig
fra 23. klokken 00 UTC til 23. klokken 06 UTC
Brutte skyer i en høyde av 1000 ft

TAF: EFVA 221732Z 2218/2318 11008KT 9999 BKN016 TEMPO 2300/2306 BKN010

Værobservasjoner og værvarsel for over 4000 flyplasser (METAR- og TAF-rapporter).

Tilgjengelige stasjoner er representert av de røde og gule prikkene på kartet.

Hold musepekeren over prikken for å se navnet på stasjonen.

Klikk så for å se værobservasjoner og -varsler.

For å forandre kartet kan du klikke på den grønne knappen med svart kryss for å zoome inn, på den grønne knappen med strek for å zoome ut, eller på de grønne pilene for å se tilstøtende kart.


METAR-TAF: